createdAt,value
2019-05-25T00:01:13.586Z,10.75
2019-05-25T00:03:43.125Z,11.38
2019-05-25T00:06:12.713Z,11.22
2019-05-25T00:08:42.401Z,11.85
2019-05-25T00:11:12.168Z,11.12
2019-05-25T00:13:41.769Z,12.10
2019-05-25T00:16:11.291Z,13.32
2019-05-25T00:18:40.839Z,13.08
2019-05-25T00:21:13.642Z,11.63
2019-05-25T00:23:41.807Z,12.43
2019-05-25T00:26:11.350Z,12.55
2019-05-25T00:28:40.922Z,12.68
2019-05-25T00:31:10.527Z,12.40
2019-05-25T00:33:40.197Z,13.20
2019-05-25T00:36:09.770Z,12.45
2019-05-25T00:38:39.310Z,12.45
2019-05-25T00:41:08.920Z,13.20
2019-05-25T00:43:38.591Z,13.45
2019-05-25T00:46:08.133Z,13.40
2019-05-25T00:48:37.670Z,13.95
2019-05-25T00:51:07.284Z,15.05
2019-05-25T00:53:36.967Z,15.03
2019-05-25T00:56:06.606Z,14.58
2019-05-25T00:58:36.160Z,14.33
2019-05-25T01:01:06.421Z,13.20
2019-05-25T01:03:36.065Z,13.30
2019-05-25T01:06:06.630Z,12.82
2019-05-25T01:08:36.170Z,13.08
2019-05-25T01:11:05.939Z,13.25
2019-05-25T01:13:35.525Z,12.95
2019-05-25T01:16:05.381Z,12.90
2019-05-25T01:18:34.926Z,12.85
2019-05-25T01:21:04.633Z,12.73
2019-05-25T01:23:34.164Z,13.70
2019-05-25T01:26:03.771Z,13.35
2019-05-25T01:28:33.568Z,12.93
2019-05-25T01:31:03.181Z,12.73
2019-05-25T01:33:32.725Z,14.05
2019-05-25T01:36:02.311Z,14.33
2019-05-25T01:38:31.916Z,14.63
2019-05-25T01:41:01.522Z,13.55
2019-05-25T01:43:31.219Z,13.43
2019-05-25T01:46:00.790Z,14.13
2019-05-25T01:48:30.332Z,14.47
2019-05-25T01:50:59.982Z,13.38
2019-05-25T01:53:29.591Z,14.07
2019-05-25T01:55:59.124Z,14.00
2019-05-25T01:58:28.707Z,12.82
2019-05-25T02:00:58.301Z,14.80
2019-05-25T02:03:27.839Z,14.43
2019-05-25T02:05:57.508Z,14.18
2019-05-25T02:08:28.033Z,13.45
2019-05-25T02:10:57.573Z,13.05
2019-05-25T02:13:27.278Z,13.90
2019-05-25T02:15:56.868Z,12.73
2019-05-25T02:18:26.412Z,12.23
2019-05-25T02:20:56.054Z,13.28
2019-05-25T02:23:25.736Z,12.78
2019-05-25T02:25:55.272Z,13.68
2019-05-25T02:28:24.857Z,13.95
2019-05-25T02:30:54.391Z,13.28
2019-05-25T02:33:23.995Z,11.28
2019-05-25T02:35:53.884Z,12.82
2019-05-25T02:38:23.428Z,12.78
2019-05-25T02:40:53.043Z,12.80
2019-05-25T02:43:22.758Z,12.40
2019-05-25T02:45:52.667Z,11.93
2019-05-25T02:48:22.364Z,12.78
2019-05-25T02:50:53.078Z,12.35
2019-05-25T02:53:22.846Z,12.68
2019-05-25T02:55:52.558Z,12.80
2019-05-25T02:58:22.204Z,12.88
2019-05-25T03:00:51.985Z,11.78
2019-05-25T03:03:21.755Z,12.20
2019-05-25T03:05:51.876Z,11.73
2019-05-25T03:08:21.477Z,13.32
2019-05-25T03:10:51.180Z,13.43
2019-05-25T03:13:21.350Z,12.45
2019-05-25T03:15:50.882Z,13.08
2019-05-25T03:18:20.548Z,13.03
2019-05-25T03:20:50.108Z,12.68
2019-05-25T03:23:19.661Z,13.75
2019-05-25T03:25:50.329Z,13.65
2019-05-25T03:28:20.066Z,14.43
2019-05-25T03:30:49.671Z,13.05
2019-05-25T03:33:19.264Z,13.32
2019-05-25T03:35:49.066Z,13.15
2019-05-25T03:38:18.681Z,12.23
2019-05-25T03:40:48.204Z,11.18
2019-05-25T03:43:17.852Z,13.10
2019-05-25T03:45:47.537Z,12.58
2019-05-25T03:48:17.132Z,12.78
2019-05-25T03:50:46.774Z,13.28
2019-05-25T03:53:16.316Z,13.93
2019-05-25T03:55:45.989Z,14.25
2019-05-25T03:58:15.637Z,13.65
2019-05-25T04:00:45.173Z,13.83
2019-05-25T04:03:14.817Z,14.70
2019-05-25T04:05:44.395Z,15.25
2019-05-25T04:08:13.921Z,15.83
2019-05-25T04:10:43.534Z,15.20
2019-05-25T04:13:13.090Z,16.07
2019-05-25T04:15:42.935Z,15.78
2019-05-25T04:18:12.448Z,16.27
2019-05-25T04:20:42.087Z,15.43
2019-05-25T04:23:11.635Z,15.28
2019-05-25T04:25:41.827Z,20.15
2019-05-25T04:28:11.474Z,18.15
2019-05-25T04:30:41.087Z,20.77
2019-05-25T04:33:10.796Z,23.18
2019-05-25T04:35:40.583Z,22.75
2019-05-25T04:38:10.143Z,22.80
2019-05-25T04:40:39.764Z,23.57
2019-05-25T04:43:09.436Z,22.42
2019-05-25T04:45:39.230Z,22.45
2019-05-25T04:48:08.924Z,23.27
2019-05-25T04:50:38.628Z,22.58
2019-05-25T04:53:08.239Z,22.67
2019-05-25T04:55:37.919Z,22.42
2019-05-25T04:58:07.506Z,20.30
2019-05-25T05:00:37.045Z,20.97
2019-05-25T05:03:07.401Z,19.75
2019-05-25T05:05:37.654Z,20.92
2019-05-25T05:08:07.314Z,19.73
2019-05-25T05:10:36.920Z,19.70
2019-05-25T05:13:06.587Z,20.02
2019-05-25T05:15:36.127Z,17.30
2019-05-25T05:18:05.669Z,16.82
2019-05-25T05:20:35.265Z,17.52
2019-05-25T05:23:04.872Z,17.20
2019-05-25T05:25:34.494Z,16.35
2019-05-25T05:28:04.129Z,15.32
2019-05-25T05:30:35.181Z,14.20
2019-05-25T05:33:05.332Z,14.15
2019-05-25T05:35:38.711Z,13.90
2019-05-25T05:38:07.505Z,14.53
2019-05-25T05:40:37.825Z,13.15
2019-05-25T05:43:12.072Z,11.05
2019-05-25T05:45:47.709Z,12.63
2019-05-25T05:48:19.276Z,11.30
2019-05-25T05:50:50.424Z,10.43
2019-05-25T05:53:21.207Z,10.88
2019-05-25T05:55:50.844Z,9.93
2019-05-25T05:58:20.743Z,8.98
2019-05-25T06:00:50.425Z,8.68
2019-05-25T06:03:20.066Z,8.60
2019-05-25T06:05:50.460Z,8.48
2019-05-25T06:08:20.007Z,7.83
2019-05-25T06:10:49.669Z,8.13
2019-05-25T06:13:19.441Z,7.75
2019-05-25T06:15:49.048Z,7.90
2019-05-25T06:18:20.176Z,8.18
2019-05-25T06:20:49.706Z,7.37
2019-05-25T06:23:19.312Z,6.85
2019-05-25T06:25:48.888Z,6.78
2019-05-25T06:28:22.284Z,7.22
2019-05-25T06:30:50.048Z,6.65
2019-05-25T06:33:19.636Z,6.50
2019-05-25T06:35:49.228Z,7.12
2019-05-25T06:38:18.995Z,5.47
2019-05-25T06:40:48.773Z,5.87
2019-05-25T06:43:18.429Z,4.92
2019-05-25T06:45:48.020Z,5.15
2019-05-25T06:48:17.692Z,5.05
2019-05-25T06:50:47.312Z,4.35
2019-05-25T06:53:17.009Z,4.62
2019-05-25T06:55:48.821Z,4.62
2019-05-25T06:58:18.870Z,4.60
2019-05-25T07:00:49.374Z,5.22
2019-05-25T07:03:19.483Z,4.53
2019-05-25T07:05:49.260Z,4.95
2019-05-25T07:08:18.975Z,4.22
2019-05-25T07:10:49.059Z,3.92
2019-05-25T07:13:18.759Z,3.67
2019-05-25T07:15:49.527Z,5.62
2019-05-25T07:18:19.245Z,4.30
2019-05-25T07:20:48.936Z,3.65
2019-05-25T07:23:20.515Z,3.58
2019-05-25T07:25:50.207Z,3.30
2019-05-25T07:28:19.882Z,3.77
2019-05-25T07:30:49.564Z,4.70
2019-05-25T07:33:19.327Z,3.33
2019-05-25T07:35:48.869Z,3.60
2019-05-25T07:38:18.414Z,3.80
2019-05-25T07:40:48.258Z,3.70
2019-05-25T07:43:17.850Z,3.10
2019-05-25T07:45:47.385Z,2.80
2019-05-25T07:48:16.955Z,3.02
2019-05-25T07:50:46.506Z,2.83
2019-05-25T07:53:16.094Z,2.27
2019-05-25T07:55:46.239Z,2.92
2019-05-25T07:58:18.405Z,3.00
2019-05-25T08:00:47.068Z,2.95
2019-05-25T08:03:16.787Z,2.70
2019-05-25T08:05:46.722Z,2.30
2019-05-25T08:08:16.257Z,2.95
2019-05-25T08:10:45.829Z,3.15
2019-05-25T08:13:15.373Z,3.00
2019-05-25T08:15:45.128Z,3.00
2019-05-25T08:18:14.696Z,2.87
2019-05-25T08:20:47.143Z,3.15
2019-05-25T08:23:15.807Z,3.33
2019-05-25T08:25:45.396Z,2.65
2019-05-25T08:28:29.810Z,3.60
2019-05-25T08:30:46.769Z,3.40
2019-05-25T08:33:16.711Z,3.75
2019-05-25T08:35:46.621Z,3.30
2019-05-25T08:38:16.330Z,3.40
2019-05-25T08:40:45.916Z,3.40
2019-05-25T08:43:15.446Z,3.47
2019-05-25T08:45:45.059Z,3.70
2019-05-25T08:48:14.669Z,4.40
2019-05-25T08:50:45.060Z,21.33
2019-05-25T08:53:14.660Z,4.03
2019-05-25T08:55:44.363Z,4.12
2019-05-25T08:58:13.981Z,4.42
2019-05-25T09:00:43.685Z,4.40
2019-05-25T09:03:13.425Z,4.33
2019-05-25T09:05:43.124Z,4.10
2019-05-25T09:08:12.767Z,3.90
2019-05-25T09:10:42.341Z,3.65
2019-05-25T09:13:12.263Z,3.60
2019-05-25T09:15:42.321Z,3.80
2019-05-25T09:18:12.767Z,3.90
2019-05-25T09:20:42.451Z,3.62
2019-05-25T09:23:12.187Z,3.80
2019-05-25T09:25:42.464Z,3.40
2019-05-25T09:28:12.083Z,4.12
2019-05-25T09:30:41.695Z,3.45
2019-05-25T09:33:11.718Z,3.80
2019-05-25T09:35:41.424Z,3.65
2019-05-25T09:38:11.338Z,3.70
2019-05-25T09:40:40.957Z,3.80
2019-05-25T09:43:11.240Z,4.00
2019-05-25T09:45:40.833Z,4.33
2019-05-25T09:48:10.411Z,4.58
2019-05-25T09:51:00.447Z,4.45
2019-05-25T09:53:30.425Z,4.50
2019-05-25T09:56:00.343Z,4.12
2019-05-25T09:58:30.587Z,5.62
2019-05-25T10:01:00.513Z,5.97
2019-05-25T10:03:30.803Z,6.50
2019-05-25T10:06:10.115Z,4.67
2019-05-25T10:08:32.591Z,6.40
2019-05-25T10:11:02.372Z,5.55
2019-05-25T10:13:32.522Z,7.22
2019-05-25T10:16:02.539Z,5.72
2019-05-25T10:18:32.333Z,5.87
2019-05-25T10:21:02.874Z,6.67
2019-05-25T10:23:32.714Z,6.83
2019-05-25T10:26:03.417Z,7.10
2019-05-25T10:28:33.225Z,7.22
2019-05-25T10:31:03.192Z,7.60
2019-05-25T10:33:34.235Z,8.68
2019-05-25T10:36:03.971Z,8.23
2019-05-25T10:38:35.844Z,6.42
2019-05-25T10:41:10.563Z,6.72
2019-05-25T10:43:42.507Z,6.53
2019-05-25T10:46:12.392Z,6.72
2019-05-25T10:48:42.238Z,6.40
2019-05-25T10:51:12.754Z,7.30
2019-05-25T10:53:42.422Z,5.28
2019-05-25T10:56:12.198Z,5.15
2019-05-25T10:58:42.041Z,4.62
2019-05-25T11:01:11.903Z,4.95
2019-05-25T11:03:41.728Z,6.00
2019-05-25T11:06:11.619Z,5.58
2019-05-25T11:08:41.266Z,5.90
2019-05-25T11:11:10.972Z,5.35
2019-05-25T11:13:40.731Z,5.72
2019-05-25T11:16:10.442Z,6.30
2019-05-25T11:18:40.174Z,5.33
2019-05-25T11:21:09.997Z,5.33
2019-05-25T11:23:39.725Z,6.05
2019-05-25T11:26:09.463Z,5.70
2019-05-25T11:28:39.394Z,6.22
2019-05-25T11:31:09.113Z,5.70
2019-05-25T11:33:38.806Z,4.90
2019-05-25T11:36:08.596Z,5.45
2019-05-25T11:38:38.295Z,5.33
2019-05-25T11:41:07.960Z,4.72
2019-05-25T11:43:37.760Z,4.10
2019-05-25T11:46:07.557Z,5.62
2019-05-25T11:48:37.252Z,4.75
2019-05-25T11:51:07.529Z,5.83
2019-05-25T11:53:37.498Z,5.08
2019-05-25T11:56:07.216Z,5.92
2019-05-25T11:58:47.022Z,6.00
2019-05-25T12:01:08.407Z,6.37
2019-05-25T12:03:38.116Z,5.60
2019-05-25T12:06:07.885Z,6.00
2019-05-25T12:08:37.486Z,7.00
2019-05-25T12:11:07.281Z,6.05
2019-05-25T12:13:37.259Z,5.47
2019-05-25T12:16:07.849Z,6.00
2019-05-25T12:18:37.594Z,4.87
2019-05-25T12:21:07.346Z,6.15
2019-05-25T12:23:37.351Z,7.15
2019-05-25T12:26:06.992Z,5.95
2019-05-25T12:28:36.678Z,5.30
2019-05-25T12:31:06.464Z,4.78
2019-05-25T12:33:36.274Z,5.78
2019-05-25T12:36:06.667Z,4.90
2019-05-25T12:38:43.754Z,4.97
2019-05-25T12:41:13.540Z,6.10
2019-05-25T12:43:43.263Z,4.72
2019-05-25T12:46:13.098Z,4.58
2019-05-25T12:48:42.957Z,4.42
2019-05-25T12:51:17.616Z,4.65
2019-05-25T12:53:45.986Z,5.25
2019-05-25T12:56:15.753Z,4.78
2019-05-25T12:58:45.335Z,5.05
2019-05-25T13:01:15.058Z,5.08
2019-05-25T13:03:44.741Z,4.58
2019-05-25T13:06:18.110Z,4.58
2019-05-25T13:08:46.507Z,4.90
2019-05-25T13:11:17.117Z,4.25
2019-05-25T13:13:47.035Z,4.40
2019-05-25T13:16:16.740Z,3.37
2019-05-25T13:18:46.750Z,4.20
2019-05-25T13:21:16.467Z,4.20
2019-05-25T13:23:46.273Z,3.62
2019-05-25T13:26:16.818Z,3.55
2019-05-25T13:28:46.548Z,3.05
2019-05-25T13:31:16.681Z,3.45
2019-05-25T13:33:46.437Z,3.25
2019-05-25T13:36:17.046Z,3.22
2019-05-25T13:38:47.108Z,3.12
2019-05-25T13:41:16.875Z,2.85
2019-05-25T13:43:49.920Z,3.77
2019-05-25T13:46:17.963Z,2.87
2019-05-25T13:48:47.747Z,3.22
2019-05-25T13:51:17.558Z,3.72
2019-05-25T13:53:47.292Z,3.60
2019-05-25T13:56:17.167Z,3.45
2019-05-25T13:58:47.357Z,3.12
2019-05-25T14:01:28.123Z,2.75
2019-05-25T14:03:48.794Z,3.17
2019-05-25T14:06:18.555Z,2.98
2019-05-25T14:08:48.497Z,3.62
2019-05-25T14:11:18.338Z,3.30
2019-05-25T14:13:48.144Z,3.42
2019-05-25T14:16:17.763Z,3.40
2019-05-25T14:18:47.593Z,3.15
2019-05-25T14:21:17.381Z,2.85
2019-05-25T14:23:47.073Z,2.80
2019-05-25T14:26:16.757Z,2.52
2019-05-25T14:28:46.909Z,3.20
2019-05-25T14:31:16.671Z,3.10
2019-05-25T14:33:46.566Z,2.85
2019-05-25T14:36:16.295Z,2.52
2019-05-25T14:38:45.852Z,2.40
2019-05-25T14:41:15.452Z,2.70
2019-05-25T14:43:45.139Z,2.60
2019-05-25T14:46:26.794Z,2.33
2019-05-25T14:48:46.530Z,2.47
2019-05-25T14:51:16.246Z,2.47
2019-05-25T14:53:45.895Z,2.52
2019-05-25T14:56:15.545Z,2.42
2019-05-25T14:58:45.630Z,2.47
2019-05-25T15:01:15.755Z,2.60
2019-05-25T15:03:45.412Z,2.33
2019-05-25T15:06:15.291Z,2.83
2019-05-25T15:08:45.047Z,2.77
2019-05-25T15:11:15.379Z,2.47
2019-05-25T15:13:45.018Z,2.77
2019-05-25T15:16:14.736Z,2.83
2019-05-25T15:18:44.838Z,2.77
2019-05-25T15:21:14.545Z,3.00
2019-05-25T15:23:44.112Z,2.65
2019-05-25T15:26:13.896Z,2.40
2019-05-25T15:28:43.727Z,2.87
2019-05-25T15:31:13.491Z,2.52
2019-05-25T15:33:43.286Z,2.25
2019-05-25T15:36:13.142Z,2.52
2019-05-25T15:38:42.914Z,2.40
2019-05-25T15:41:12.793Z,2.30
2019-05-25T15:43:42.443Z,2.35
2019-05-25T15:46:12.027Z,2.90
2019-05-25T15:48:41.866Z,2.70
2019-05-25T15:51:11.603Z,2.72
2019-05-25T15:53:41.287Z,2.42
2019-05-25T15:56:11.048Z,2.52
2019-05-25T15:58:40.670Z,2.40
2019-05-25T16:01:10.418Z,2.35
2019-05-25T16:03:40.239Z,2.33
2019-05-25T16:06:10.060Z,2.25
2019-05-25T16:08:40.148Z,2.05
2019-05-25T16:11:09.948Z,2.55
2019-05-25T16:13:39.601Z,2.17
2019-05-25T16:16:09.369Z,1.90
2019-05-25T16:18:39.107Z,2.12
2019-05-25T16:21:08.825Z,2.00
2019-05-25T16:23:38.641Z,1.90
2019-05-25T16:26:08.445Z,2.10
2019-05-25T16:28:38.086Z,1.60
2019-05-25T16:31:07.872Z,1.85
2019-05-25T16:33:37.655Z,1.90
2019-05-25T16:36:07.669Z,1.98
2019-05-25T16:38:37.478Z,1.90
2019-05-25T16:41:07.224Z,2.02
2019-05-25T16:43:37.027Z,2.02
2019-05-25T16:46:07.052Z,1.80
2019-05-25T16:48:36.863Z,1.60
2019-05-25T16:51:06.584Z,1.80
2019-05-25T16:53:36.282Z,1.82
2019-05-25T16:56:06.024Z,1.72
2019-05-25T16:58:35.652Z,1.67
2019-05-25T17:01:05.901Z,1.42
2019-05-25T17:03:36.075Z,1.70
2019-05-25T17:06:05.838Z,1.70
2019-05-25T17:08:36.431Z,1.47
2019-05-25T17:11:06.242Z,1.62
2019-05-25T17:13:35.943Z,1.42
2019-05-25T17:16:05.714Z,1.32
2019-05-25T17:18:35.376Z,1.70
2019-05-25T17:21:05.108Z,1.60
2019-05-25T17:23:34.738Z,1.77
2019-05-25T17:26:04.771Z,1.60
2019-05-25T17:28:34.634Z,1.70
2019-05-25T17:31:04.353Z,1.95
2019-05-25T17:33:45.226Z,2.17
2019-05-25T17:36:05.872Z,1.75
2019-05-25T17:38:35.561Z,1.80
2019-05-25T17:41:06.891Z,1.75
2019-05-25T17:43:36.600Z,2.20
2019-05-25T17:46:06.321Z,2.10
2019-05-25T17:48:36.430Z,1.80
2019-05-25T17:51:06.134Z,1.90
2019-05-25T17:53:35.784Z,1.70
2019-05-25T17:56:05.623Z,1.77
2019-05-25T17:58:35.246Z,1.62
2019-05-25T18:01:05.247Z,1.67
2019-05-25T18:03:35.439Z,1.90
2019-05-25T18:06:05.304Z,1.72
2019-05-25T18:08:34.945Z,1.70
2019-05-25T18:11:05.155Z,1.72
2019-05-25T18:13:34.927Z,1.75
2019-05-25T18:16:04.642Z,2.20
2019-05-25T18:18:34.941Z,1.90
2019-05-25T18:21:05.656Z,1.75
2019-05-25T18:23:35.555Z,1.90
2019-05-25T18:26:05.331Z,2.30
2019-05-25T18:28:35.136Z,2.30
2019-05-25T18:31:05.928Z,1.75
2019-05-25T18:33:36.996Z,2.20
2019-05-25T18:36:06.840Z,2.00
2019-05-25T18:38:36.980Z,2.65
2019-05-25T18:41:06.860Z,1.95
2019-05-25T18:43:36.895Z,1.90
2019-05-25T18:46:07.152Z,2.12
2019-05-25T18:48:37.048Z,2.42
2019-05-25T18:51:08.616Z,1.85
2019-05-25T18:53:38.889Z,1.98
2019-05-25T18:56:08.974Z,2.27
2019-05-25T18:58:38.632Z,2.22
2019-05-25T19:01:08.508Z,2.02
2019-05-25T19:03:38.224Z,2.08
2019-05-25T19:06:07.959Z,2.67
2019-05-25T19:08:37.783Z,2.22
2019-05-25T19:11:07.663Z,2.60
2019-05-25T19:13:37.381Z,2.60
2019-05-25T19:16:07.575Z,2.37
2019-05-25T19:18:37.755Z,2.42
2019-05-25T19:21:07.762Z,2.20
2019-05-25T19:23:37.957Z,2.37
2019-05-25T19:26:07.844Z,2.80
2019-05-25T19:28:37.769Z,2.47
2019-05-25T19:31:07.844Z,2.30
2019-05-25T19:33:37.899Z,2.65
2019-05-25T19:36:07.967Z,2.60
2019-05-25T19:38:37.861Z,2.40
2019-05-25T19:41:08.026Z,2.95
2019-05-25T19:43:38.033Z,3.02
2019-05-25T19:46:08.215Z,3.30
2019-05-25T19:48:40.096Z,3.02
2019-05-25T19:51:10.767Z,2.67
2019-05-25T19:53:40.839Z,2.75
2019-05-25T19:56:11.225Z,2.95
2019-05-25T19:58:42.176Z,3.10
2019-05-25T20:01:12.508Z,3.30
2019-05-25T20:03:42.568Z,3.17
2019-05-25T20:06:12.409Z,3.02
2019-05-25T20:08:42.362Z,3.10
2019-05-25T20:11:12.442Z,2.90
2019-05-25T20:13:42.298Z,3.12
2019-05-25T20:16:13.276Z,3.02
2019-05-25T20:18:43.213Z,3.35
2019-05-25T20:21:13.220Z,3.33
2019-05-25T20:23:43.212Z,3.72
2019-05-25T20:26:13.148Z,3.58
2019-05-25T20:28:42.863Z,3.33
2019-05-25T20:31:12.891Z,3.70
2019-05-25T20:33:42.890Z,3.65
2019-05-25T20:36:13.066Z,3.55
2019-05-25T20:38:42.935Z,3.27
2019-05-25T20:41:12.565Z,3.20
2019-05-25T20:43:42.203Z,4.15
2019-05-25T20:46:12.228Z,3.77
2019-05-25T20:48:41.886Z,3.33
2019-05-25T20:51:11.528Z,4.30
2019-05-25T20:53:41.483Z,7.03
2019-05-25T20:56:11.354Z,13.22
2019-05-25T20:58:40.999Z,14.00
2019-05-25T21:01:10.790Z,12.88
2019-05-25T21:03:40.494Z,11.53
2019-05-25T21:06:11.073Z,9.93
2019-05-25T21:08:40.958Z,8.58
2019-05-25T21:11:10.686Z,9.60
2019-05-25T21:13:40.385Z,9.08
2019-05-25T21:16:10.085Z,8.48
2019-05-25T21:18:39.813Z,8.10
2019-05-25T21:21:09.491Z,7.80
2019-05-25T21:23:39.263Z,7.08
2019-05-25T21:26:08.919Z,6.70
2019-05-25T21:28:38.628Z,6.80
2019-05-25T21:31:08.365Z,7.42
2019-05-25T21:33:37.997Z,6.53
2019-05-25T21:36:09.347Z,6.83
2019-05-25T21:38:38.948Z,6.28
2019-05-25T21:41:08.513Z,6.30
2019-05-25T21:43:38.198Z,6.78
2019-05-25T21:46:07.944Z,7.00
2019-05-25T21:48:37.759Z,7.25
2019-05-25T21:51:07.447Z,7.40
2019-05-25T21:53:37.199Z,7.53
2019-05-25T21:56:06.932Z,6.92
2019-05-25T21:58:36.751Z,7.05
2019-05-25T22:01:06.925Z,7.75
2019-05-25T22:03:36.567Z,7.70
2019-05-25T22:06:06.289Z,7.75
2019-05-25T22:08:35.884Z,7.17
2019-05-25T22:11:05.765Z,7.30
2019-05-25T22:13:35.420Z,7.35
2019-05-25T22:16:05.168Z,6.90
2019-05-25T22:18:34.884Z,6.28
2019-05-25T22:21:04.535Z,6.50
2019-05-25T22:23:34.216Z,6.60
2019-05-25T22:26:03.946Z,7.25
2019-05-25T22:28:44.217Z,7.47
2019-05-25T22:31:05.117Z,6.95
2019-05-25T22:33:36.239Z,7.53
2019-05-25T22:36:05.940Z,7.45
2019-05-25T22:38:35.696Z,7.05
2019-05-25T22:41:05.608Z,7.62
2019-05-25T22:43:35.231Z,7.72
2019-05-25T22:46:04.908Z,7.80
2019-05-25T22:48:34.501Z,7.47
2019-05-25T22:51:04.204Z,7.87
2019-05-25T22:53:33.849Z,9.20
2019-05-25T22:56:03.492Z,10.20
2019-05-25T22:58:33.703Z,8.43
2019-05-25T23:01:03.491Z,8.13
2019-05-25T23:03:33.203Z,9.75
2019-05-25T23:06:03.087Z,10.40
2019-05-25T23:08:32.869Z,10.72
2019-05-25T23:11:02.676Z,11.45
2019-05-25T23:13:32.525Z,10.20
2019-05-25T23:16:02.204Z,9.53
2019-05-25T23:18:31.972Z,9.93
2019-05-25T23:21:01.573Z,9.35
2019-05-25T23:23:31.193Z,11.30
2019-05-25T23:26:00.830Z,10.55
2019-05-25T23:28:30.381Z,10.68
2019-05-25T23:31:00.084Z,10.95
2019-05-25T23:33:29.719Z,10.48
2019-05-25T23:35:59.385Z,10.55
2019-05-25T23:38:29.448Z,12.30
2019-05-25T23:41:00.053Z,10.98
2019-05-25T23:43:29.696Z,12.33
2019-05-25T23:45:59.473Z,11.43
2019-05-25T23:48:29.114Z,11.50
2019-05-25T23:50:58.771Z,9.73
2019-05-25T23:53:28.374Z,11.20
2019-05-25T23:55:58.061Z,9.75
2019-05-25T23:58:27.981Z,10.15
